Time;durP1;ratioP1;P1;durP2;ratioP2;P2;SDS_P1;SDS_P2;PMS_P1;PMS_P2;Temp;Humidity;BMP_temperature;BMP_pressure;BME280_temperature;BME280_humidity;BME280_pressure;Samples;Min_cycle;Max_cycle;Signal;HPM_P1;HPM_P2
2022/03/27 00:01:52;;;;;;;8.48;5.97;;;6.80;99.90;;;;;;4982894;28;20041;-84
2022/03/27 00:04:18;;;;;;;9.85;5.70;;;6.90;99.90;;;;;;5031932;28;20079;-84
2022/03/27 00:06:44;;;;;;;9.70;5.97;;;6.90;99.90;;;;;;5014088;28;20068;-86
2022/03/27 00:09:09;;;;;;;9.75;6.63;;;6.90;99.90;;;;;;4998443;28;20126;-85
2022/03/27 00:11:35;;;;;;;10.98;6.60;;;7.00;99.90;;;;;;5022097;28;20049;-85
2022/03/27 00:14:04;;;;;;;9.27;6.05;;;7.00;99.90;;;;;;4992281;28;20056;-85
2022/03/27 00:16:30;;;;;;;9.52;6.10;;;7.00;99.90;;;;;;5012827;28;20133;-85
2022/03/27 00:18:56;;;;;;;11.75;5.50;;;7.10;99.90;;;;;;5006055;28;20041;-85
2022/03/27 00:21:23;;;;;;;7.68;5.55;;;7.10;99.90;;;;;;5014974;28;20048;-85
2022/03/27 00:23:50;;;;;;;9.35;5.60;;;7.10;99.90;;;;;;5015319;28;20045;-85
2022/03/27 00:26:16;;;;;;;9.13;5.68;;;7.10;99.90;;;;;;5014432;28;20106;-85
2022/03/27 00:28:43;;;;;;;11.20;6.05;;;7.10;99.90;;;;;;5011567;28;20125;-85
2022/03/27 00:31:10;;;;;;;7.50;5.43;;;7.00;99.90;;;;;;5024928;28;20041;-84
2022/03/27 00:33:38;;;;;;;10.70;6.80;;;7.00;99.90;;;;;;5012469;28;20045;-85
2022/03/27 00:36:05;;;;;;;11.45;5.82;;;7.10;99.90;;;;;;5010738;28;20049;-85
2022/03/27 00:38:32;;;;;;;10.32;6.03;;;7.00;99.90;;;;;;5026977;28;20587;-85
2022/03/27 00:40:59;;;;;;;11.18;6.60;;;7.10;99.90;;;;;;5027855;28;20049;-84
2022/03/27 00:43:26;;;;;;;13.05;6.80;;;7.10;99.90;;;;;;5026369;28;20052;-85
2022/03/27 00:45:52;;;;;;;15.75;8.07;;;7.10;99.90;;;;;;4994756;28;20493;-85
2022/03/27 00:48:19;;;;;;;16.38;8.32;;;7.20;99.90;;;;;;5007866;28;20053;-86
2022/03/27 00:50:47;;;;;;;21.52;9.15;;;7.20;99.90;;;;;;5028616;28;20033;-84
2022/03/27 00:53:13;;;;;;;15.82;8.60;;;7.10;99.90;;;;;;5024679;28;20057;-85
2022/03/27 00:55:39;;;;;;;21.88;9.80;;;7.10;99.90;;;;;;4994313;28;20038;-86
2022/03/27 00:58:05;;;;;;;17.58;9.50;;;7.10;99.90;;;;;;5028056;28;20127;-86
2022/03/27 01:00:46;;;;;;;21.00;10.35;;;7.10;99.90;;;;;;5008282;28;20084;-86
2022/03/27 01:03:14;;;;;;;20.45;9.60;;;7.10;99.90;;;;;;5003348;28;20052;-85
2022/03/27 01:05:44;;;;;;;17.42;9.52;;;7.10;99.90;;;;;;5012034;28;20053;-85
2022/03/27 01:08:12;;;;;;;16.02;9.23;;;7.00;99.90;;;;;;5011632;28;20300;-85
2022/03/27 01:10:39;;;;;;;15.70;8.90;;;7.00;99.90;;;;;;4993097;28;20120;-85
2022/03/27 01:13:19;;;;;;;17.63;8.77;;;7.00;99.90;;;;;;5009930;28;20056;-85
2022/03/27 01:15:57;;;;;;;16.08;8.60;;;7.00;99.90;;;;;;5008548;28;20055;-85
2022/03/27 01:18:23;;;;;;;16.52;8.75;;;7.00;99.90;;;;;;5013357;28;20111;-84
2022/03/27 01:20:49;;;;;;;13.63;8.23;;;6.90;99.90;;;;;;5008128;28;20085;-85
2022/03/27 01:23:15;;;;;;;14.07;8.70;;;6.90;99.90;;;;;;4986227;28;20048;-85
2022/03/27 01:25:43;;;;;;;16.40;8.63;;;6.80;99.90;;;;;;5028515;28;20124;-86
2022/03/27 01:28:11;;;;;;;14.13;7.95;;;6.80;99.90;;;;;;5025478;28;20087;-85
2022/03/27 01:30:37;;;;;;;17.77;8.20;;;6.70;99.90;;;;;;5015301;28;20041;-86
2022/03/27 01:33:05;;;;;;;14.85;8.23;;;6.50;99.90;;;;;;5001061;28;20054;-85
2022/03/27 01:35:31;;;;;;;19.75;9.63;;;6.30;99.90;;;;;;5012323;28;20438;-85
2022/03/27 01:37:57;;;;;;;15.57;8.05;;;6.20;99.90;;;;;;5013834;28;20460;-85
2022/03/27 01:40:25;;;;;;;14.68;8.02;;;6.10;99.90;;;;;;4998451;28;20501;-85
2022/03/27 01:42:54;;;;;;;16.27;8.10;;;5.90;99.90;;;;;;5012333;28;20037;-85
2022/03/27 01:45:19;;;;;;;17.38;8.55;;;5.80;99.90;;;;;;5014800;28;20132;-85
2022/03/27 01:47:45;;;;;;;17.48;8.57;;;5.60;99.90;;;;;;5034688;28;20124;-85
2022/03/27 01:50:11;;;;;;;15.18;7.85;;;5.60;99.90;;;;;;5018239;28;20508;-85
2022/03/27 01:52:37;;;;;;;20.17;9.25;;;5.50;99.90;;;;;;5017371;28;20136;-85
2022/03/27 01:55:06;;;;;;;23.55;9.68;;;5.40;99.90;;;;;;5018200;28;20490;-84
2022/03/27 01:57:32;;;;;;;22.08;9.90;;;5.30;99.90;;;;;;5018786;28;20049;-85
2022/03/27 01:59:57;;;;;;;18.63;9.05;;;5.20;99.90;;;;;;5034258;28;20156;-84
2022/03/27 02:02:24;;;;;;;20.33;10.80;;;5.20;99.90;;;;;;5034896;28;20044;-85
2022/03/27 02:04:53;;;;;;;21.42;11.30;;;5.10;99.90;;;;;;5016781;28;20055;-84
2022/03/27 02:07:22;;;;;;;25.30;10.13;;;5.10;99.90;;;;;;5028165;28;20521;-84
2022/03/27 02:09:49;;;;;;;21.65;11.13;;;5.00;99.90;;;;;;5011156;28;20438;-84
2022/03/27 02:12:14;;;;;;;26.65;10.38;;;5.00;99.90;;;;;;5017181;28;20102;-84
2022/03/27 02:14:40;;;;;;;25.55;9.18;;;4.90;99.90;;;;;;5033431;28;20049;-84
2022/03/27 02:17:08;;;;;;;21.20;9.48;;;4.80;99.90;;;;;;5032821;28;20048;-84
2022/03/27 02:19:35;;;;;;;17.92;8.93;;;4.90;99.90;;;;;;5034459;28;20054;-84
2022/03/27 02:22:02;;;;;;;19.83;8.90;;;4.90;99.90;;;;;;5033228;28;20124;-85
2022/03/27 02:24:28;;;;;;;15.98;8.55;;;4.90;99.90;;;;;;5034315;28;20045;-84
2022/03/27 02:26:54;;;;;;;16.75;8.52;;;5.10;99.90;;;;;;5015355;28;20045;-84
2022/03/27 02:29:20;;;;;;;20.60;10.30;;;5.20;99.90;;;;;;5029151;28;20564;-84
2022/03/27 02:31:46;;;;;;;21.23;10.13;;;5.20;99.90;;;;;;5033796;28;20067;-85
2022/03/27 02:34:12;;;;;;;20.75;10.50;;;5.30;99.90;;;;;;5016983;28;20036;-84
2022/03/27 02:36:38;;;;;;;20.05;9.85;;;5.30;99.90;;;;;;5034410;28;20049;-84
2022/03/27 02:39:05;;;;;;;21.10;10.32;;;5.20;99.90;;;;;;5028238;28;20049;-85
2022/03/27 02:41:31;;;;;;;22.73;9.75;;;5.20;99.90;;;;;;5037962;28;20062;-85
2022/03/27 02:43:56;;;;;;;19.58;9.57;;;5.20;99.90;;;;;;5019902;28;20131;-85
2022/03/27 02:46:22;;;;;;;26.75;10.45;;;5.30;99.90;;;;;;5021025;28;20045;-85
2022/03/27 02:48:48;;;;;;;23.10;9.40;;;5.20;99.90;;;;;;4983644;28;20081;-85
2022/03/27 02:51:13;;;;;;;26.50;9.77;;;5.30;99.90;;;;;;5033154;28;20087;-85
2022/03/27 02:53:39;;;;;;;24.95;9.88;;;5.20;99.90;;;;;;5041386;28;20091;-85
2022/03/27 02:56:07;;;;;;;27.45;9.77;;;5.30;99.90;;;;;;5000481;28;20053;-85
2022/03/27 02:58:33;;;;;;;29.75;9.60;;;5.30;99.90;;;;;;5019504;28;20053;-84
2022/03/27 03:00:58;;;;;;;25.75;9.38;;;5.40;99.90;;;;;;5043850;28;20087;-85
2022/03/27 03:03:24;;;;;;;29.10;10.38;;;5.50;99.90;;;;;;5033366;28;20060;-84
2022/03/27 03:05:51;;;;;;;23.70;9.35;;;5.50;99.90;;;;;;5019305;28;20070;-84
2022/03/27 03:08:18;;;;;;;23.77;9.60;;;5.50;99.90;;;;;;5029898;28;20083;-85
2022/03/27 03:10:44;;;;;;;26.23;10.13;;;5.50;99.90;;;;;;5029527;28;20128;-85
2022/03/27 03:13:11;;;;;;;24.23;9.77;;;5.50;99.90;;;;;;5046417;28;20060;-84
2022/03/27 03:15:38;;;;;;;25.70;9.90;;;5.50;99.90;;;;;;5031335;28;20095;-84
2022/03/27 03:18:05;;;;;;;29.83;9.93;;;5.40;99.90;;;;;;5033488;28;20045;-85
2022/03/27 03:20:32;;;;;;;22.92;10.00;;;5.50;99.90;;;;;;5013783;28;20564;-84
2022/03/27 03:22:58;;;;;;;20.58;9.43;;;5.50;99.90;;;;;;5016962;28;20517;-84
2022/03/27 03:25:23;;;;;;;32.65;10.23;;;5.60;99.90;;;;;;5032593;28;20044;-84
2022/03/27 03:27:49;;;;;;;24.02;9.48;;;5.70;99.90;;;;;;5000659;28;20056;-84
2022/03/27 03:30:17;;;;;;;23.60;9.57;;;5.80;99.90;;;;;;5014843;28;20049;-85
2022/03/27 03:32:43;;;;;;;32.72;9.75;;;5.80;99.90;;;;;;5016615;28;20080;-84
2022/03/27 03:35:10;;;;;;;29.58;9.73;;;5.90;99.90;;;;;;5032848;28;20053;-85
2022/03/27 03:37:37;;;;;;;34.20;10.07;;;6.00;99.90;;;;;;4994415;28;20132;-84
2022/03/27 03:40:06;;;;;;;27.17;9.05;;;6.10;99.90;;;;;;5031244;28;20057;-85
2022/03/27 03:42:33;;;;;;;25.63;8.57;;;6.10;99.90;;;;;;5015278;28;20459;-84
2022/03/27 03:44:58;;;;;;;25.98;8.73;;;6.10;99.90;;;;;;4983654;28;20117;-84
2022/03/27 03:47:24;;;;;;;24.88;8.65;;;6.20;99.90;;;;;;5016206;28;20048;-84
2022/03/27 03:49:50;;;;;;;29.10;9.10;;;6.20;99.90;;;;;;5031228;28;20060;-84
2022/03/27 03:52:16;;;;;;;26.63;8.65;;;6.20;99.90;;;;;;5023565;28;20522;-84
2022/03/27 03:54:41;;;;;;;25.80;8.55;;;6.20;99.90;;;;;;4992519;28;20406;-85
2022/03/27 03:57:08;;;;;;;32.40;9.60;;;6.30;99.90;;;;;;5025956;28;20398;-85
2022/03/27 03:59:36;;;;;;;28.60;9.10;;;6.30;99.90;;;;;;5016427;28;20056;-84
2022/03/27 04:02:05;;;;;;;25.73;9.50;;;6.30;99.90;;;;;;4999368;28;20072;-85
2022/03/27 04:04:32;;;;;;;25.40;9.35;;;6.30;99.90;;;;;;5018328;28;20081;-83
2022/03/27 04:06:59;;;;;;;26.42;8.70;;;6.30;99.90;;;;;;5016312;28;20052;-84
2022/03/27 04:09:25;;;;;;;25.92;9.85;;;6.40;99.90;;;;;;4998849;28;20809;-84
2022/03/27 04:11:51;;;;;;;29.50;9.90;;;6.40;99.90;;;;;;5013059;28;20080;-84
2022/03/27 04:14:18;;;;;;;30.10;10.27;;;6.30;99.90;;;;;;5026775;28;20037;-85
2022/03/27 04:16:44;;;;;;;34.25;10.85;;;6.40;99.90;;;;;;4998938;28;20413;-85
2022/03/27 04:19:09;;;;;;;33.67;10.52;;;6.50;99.90;;;;;;5014330;28;20048;-85
2022/03/27 04:21:35;;;;;;;37.42;10.60;;;6.40;99.90;;;;;;4998641;28;20072;-85
2022/03/27 04:24:01;;;;;;;31.35;10.45;;;6.40;99.90;;;;;;5014393;28;20049;-84
2022/03/27 04:26:26;;;;;;;25.90;9.00;;;6.40;99.90;;;;;;5011510;28;20045;-85
2022/03/27 04:28:52;;;;;;;35.70;9.77;;;6.40;99.90;;;;;;5014545;28;20072;-85
2022/03/27 04:31:18;;;;;;;34.65;10.77;;;6.40;99.90;;;;;;5015430;28;20509;-84
2022/03/27 04:33:44;;;;;;;34.70;10.68;;;6.40;99.90;;;;;;5025920;28;20126;-85
2022/03/27 04:36:10;;;;;;;36.85;10.32;;;6.40;99.90;;;;;;5046931;28;20041;-85
2022/03/27 04:38:36;;;;;;;36.53;10.60;;;6.40;99.90;;;;;;5012697;28;20051;-84
2022/03/27 04:41:02;;;;;;;38.08;11.98;;;6.40;99.90;;;;;;5031962;28;20041;-84
2022/03/27 04:43:29;;;;;;;34.58;11.50;;;6.40;99.90;;;;;;5003124;28;20053;-85
2022/03/27 04:45:54;;;;;;;43.42;12.88;;;6.50;99.90;;;;;;5029389;28;20049;-85
2022/03/27 04:48:20;;;;;;;38.50;11.55;;;6.40;99.90;;;;;;4998443;28;20394;-85
2022/03/27 04:50:46;;;;;;;43.03;11.20;;;6.40;99.90;;;;;;4993403;28;20042;-84
2022/03/27 04:53:12;;;;;;;48.05;11.75;;;6.50;99.90;;;;;;4996382;28;20512;-84
2022/03/27 04:55:38;;;;;;;38.35;11.55;;;6.40;99.90;;;;;;5009008;28;20437;-85
2022/03/27 04:58:08;;;;;;;43.30;11.45;;;6.40;99.90;;;;;;5030654;28;20049;-85
2022/03/27 05:00:34;;;;;;;49.67;12.35;;;6.50;99.90;;;;;;5031092;28;20486;-85
2022/03/27 05:03:00;;;;;;;48.40;11.98;;;6.40;99.90;;;;;;4998456;28;20033;-84
2022/03/27 05:05:26;;;;;;;50.53;13.48;;;6.40;99.90;;;;;;5031529;28;20157;-84
2022/03/27 05:07:53;;;;;;;42.40;12.95;;;6.40;99.90;;;;;;5013199;28;20060;-85
2022/03/27 05:10:19;;;;;;;60.88;13.43;;;6.40;99.90;;;;;;4998401;28;20057;-85
2022/03/27 05:12:45;;;;;;;50.40;12.23;;;6.40;99.90;;;;;;5014534;28;20056;-85
2022/03/27 05:15:12;;;;;;;54.75;12.48;;;6.50;99.90;;;;;;5015170;28;20448;-86
2022/03/27 05:18:04;;;;;;;52.20;12.48;;;6.40;99.90;;;;;;5022929;28;20049;-85
2022/03/27 05:20:30;;;;;;;46.13;13.10;;;6.40;99.90;;;;;;4993939;28;20439;-85
2022/03/27 05:22:59;;;;;;;39.25;11.82;;;6.40;99.90;;;;;;5018072;28;20037;-84
2022/03/27 05:25:25;;;;;;;44.53;12.70;;;6.40;99.90;;;;;;5015139;28;20059;-84
2022/03/27 05:27:59;;;;;;;46.72;12.77;;;6.40;99.90;;;;;;5017544;28;20101;-84
2022/03/27 05:30:27;;;;;;;45.05;12.00;;;6.40;99.90;;;;;;5035050;28;20142;-84
2022/03/27 05:32:53;;;;;;;54.88;12.77;;;6.40;99.90;;;;;;5035054;28;20041;-84
2022/03/27 05:35:20;;;;;;;45.35;10.85;;;6.40;99.90;;;;;;5018571;28;20036;-84
2022/03/27 05:37:48;;;;;;;49.97;11.25;;;6.50;99.90;;;;;;5034609;28;20041;-84
2022/03/27 05:40:17;;;;;;;44.78;11.10;;;6.40;99.90;;;;;;5014050;28;20354;-84
2022/03/27 05:42:43;;;;;;;37.15;9.35;;;6.40;99.90;;;;;;5034349;28;20045;-85
2022/03/27 05:45:09;;;;;;;36.40;9.75;;;6.40;99.90;;;;;;5019045;28;20045;-85
2022/03/27 05:47:37;;;;;;;48.35;11.45;;;6.40;99.90;;;;;;5034134;28;20072;-84
2022/03/27 05:50:04;;;;;;;52.28;13.73;;;6.40;99.90;;;;;;5017274;28;20032;-84
2022/03/27 05:52:30;;;;;;;39.80;9.85;;;6.40;99.90;;;;;;5031255;28;20045;-85
2022/03/27 05:54:56;;;;;;;44.38;10.57;;;6.50;99.90;;;;;;5034219;28;20498;-84
2022/03/27 05:57:22;;;;;;;44.20;10.40;;;6.40;99.90;;;;;;5001686;28;20405;-84
2022/03/27 05:59:48;;;;;;;44.25;10.95;;;6.50;99.90;;;;;;5031891;28;20079;-85
2022/03/27 06:02:15;;;;;;;53.20;11.80;;;6.50;99.90;;;;;;5017356;28;20098;-86
2022/03/27 06:04:41;;;;;;;49.03;10.63;;;6.50;99.90;;;;;;5017868;28;20037;-84
2022/03/27 06:07:08;;;;;;;45.47;10.88;;;6.50;99.90;;;;;;5034745;28;20053;-84
2022/03/27 06:09:34;;;;;;;45.58;10.88;;;6.50;99.90;;;;;;5032783;28;20040;-84
2022/03/27 06:12:01;;;;;;;45.88;10.50;;;6.60;99.90;;;;;;5026982;28;20073;-85
2022/03/27 06:14:27;;;;;;;32.15;8.80;;;6.60;99.90;;;;;;5010855;28;20075;-85
2022/03/27 06:16:53;;;;;;;32.72;10.23;;;6.70;99.90;;;;;;5002132;28;20087;-84
2022/03/27 06:19:19;;;;;;;45.78;11.55;;;6.70;99.90;;;;;;5017674;28;20037;-85
2022/03/27 06:21:45;;;;;;;40.70;10.02;;;6.70;99.90;;;;;;5016358;28;20544;-84
2022/03/27 06:24:12;;;;;;;39.45;9.90;;;6.70;99.90;;;;;;5012883;28;20747;-84
2022/03/27 06:26:41;;;;;;;35.10;9.80;;;6.70;99.90;;;;;;5017168;28;20044;-85
2022/03/27 06:29:09;;;;;;;43.65;9.98;;;6.80;99.90;;;;;;5010595;28;20057;-85
2022/03/27 06:31:36;;;;;;;42.92;11.38;;;6.80;99.90;;;;;;5009917;28;20045;-84
2022/03/27 06:34:03;;;;;;;43.28;9.88;;;6.80;99.90;;;;;;5014017;28;20053;-84
2022/03/27 06:36:28;;;;;;;52.28;10.15;;;6.80;99.90;;;;;;5028307;28;20117;-84
2022/03/27 06:38:54;;;;;;;35.95;10.25;;;6.80;99.90;;;;;;5028750;28;20144;-84
2022/03/27 06:41:19;;;;;;;33.55;8.57;;;6.90;99.90;;;;;;4997726;28;20064;-86
2022/03/27 06:43:45;;;;;;;36.55;9.23;;;7.00;99.90;;;;;;4991147;28;20053;-85
2022/03/27 06:46:16;;;;;;;35.47;10.20;;;7.00;99.90;;;;;;5014210;28;20050;-85
2022/03/27 06:48:42;;;;;;;41.72;10.35;;;7.10;99.90;;;;;;4998733;28;20045;-86
2022/03/27 06:51:07;;;;;;;40.17;9.45;;;7.20;99.90;;;;;;5014076;28;20099;-86
2022/03/27 06:53:33;;;;;;;31.58;8.90;;;7.30;99.90;;;;;;5011694;28;20091;-85
2022/03/27 06:55:59;;;;;;;29.15;8.60;;;7.30;99.90;;;;;;5030716;28;20080;-85
2022/03/27 06:58:24;;;;;;;38.85;8.88;;;7.30;99.90;;;;;;5013619;28;20513;-84
2022/03/27 07:03:34;;;;;;;30.70;7.97;;;7.50;99.90;;;;;;5011242;28;20045;-84
2022/03/27 07:06:00;;;;;;;46.40;9.30;;;7.60;99.90;;;;;;5013886;28;20041;-84
2022/03/27 07:08:25;;;;;;;40.30;7.93;;;7.60;99.90;;;;;;5009477;28;20048;-84
2022/03/27 07:10:51;;;;;;;41.05;8.30;;;7.60;99.90;;;;;;5024639;28;20095;-84
2022/03/27 07:13:18;;;;;;;39.53;8.23;;;7.70;99.90;;;;;;5028699;28;20088;-82
2022/03/27 07:15:46;;;;;;;45.47;8.23;;;7.80;99.90;;;;;;5029239;28;20069;-85
2022/03/27 07:18:13;;;;;;;47.38;9.82;;;7.80;99.90;;;;;;5013673;28;20053;-83
2022/03/27 07:20:41;;;;;;;46.05;9.43;;;7.90;99.90;;;;;;5000629;28;20050;-86
2022/03/27 07:23:09;;;;;;;44.53;8.27;;;7.90;99.90;;;;;;5009442;28;20045;-85
2022/03/27 07:25:37;;;;;;;38.58;8.68;;;8.00;99.90;;;;;;5012997;28;20676;-85
2022/03/27 07:28:03;;;;;;;41.42;9.00;;;8.00;99.90;;;;;;5027934;28;20053;-84
2022/03/27 07:30:30;;;;;;;47.78;8.38;;;8.00;99.90;;;;;;5002642;28;20053;-82
2022/03/27 07:32:57;;;;;;;51.50;9.43;;;8.10;99.90;;;;;;4992899;28;20414;-83
2022/03/27 07:35:24;;;;;;;50.70;9.82;;;8.10;99.90;;;;;;4992844;28;20053;-82
2022/03/27 07:37:51;;;;;;;47.97;10.43;;;8.20;99.90;;;;;;5012955;28;20057;-82
2022/03/27 07:40:18;;;;;;;36.78;8.35;;;8.40;99.90;;;;;;5030144;28;20558;-82
2022/03/27 07:42:49;;;;;;;50.55;9.38;;;8.50;99.90;;;;;;5029719;28;20045;-82
2022/03/27 07:45:21;;;;;;;35.25;8.05;;;8.60;99.90;;;;;;4998054;28;20053;-82
2022/03/27 07:47:50;;;;;;;41.38;8.52;;;8.70;99.90;;;;;;5013605;28;20092;-82
2022/03/27 07:50:18;;;;;;;33.50;8.48;;;8.70;99.90;;;;;;5013629;28;20502;-82
2022/03/27 07:52:44;;;;;;;42.58;7.80;;;8.70;99.90;;;;;;5013128;28;20597;-83
2022/03/27 07:55:13;;;;;;;42.75;8.90;;;8.60;99.90;;;;;;5030291;28;20135;-82
2022/03/27 07:57:39;;;;;;;40.60;8.85;;;8.70;99.90;;;;;;5029492;28;20505;-82
2022/03/27 08:00:08;;;;;;;45.03;7.60;;;8.80;99.90;;;;;;5013677;28;20087;-81
2022/03/27 08:02:34;;;;;;;42.58;8.10;;;8.80;99.90;;;;;;5013106;28;20391;-81
2022/03/27 08:05:00;;;;;;;40.35;7.20;;;8.80;99.90;;;;;;5013679;28;20582;-81
2022/03/27 08:07:25;;;;;;;41.45;8.45;;;8.70;99.90;;;;;;5022181;28;20133;-82
2022/03/27 08:09:52;;;;;;;42.00;8.05;;;8.90;99.90;;;;;;4990993;28;20119;-81
2022/03/27 08:12:20;;;;;;;41.60;7.93;;;9.10;99.90;;;;;;5008837;28;20053;-81
2022/03/27 08:14:48;;;;;;;49.05;8.65;;;9.40;99.90;;;;;;5029436;28;20241;-81
2022/03/27 08:17:15;;;;;;;44.53;8.35;;;9.50;99.90;;;;;;5029951;28;20128;-82
2022/03/27 08:19:43;;;;;;;46.75;8.07;;;9.60;99.90;;;;;;5029408;28;20702;-81
2022/03/27 08:22:09;;;;;;;47.00;8.57;;;9.30;99.90;;;;;;5029593;28;20071;-81
2022/03/27 08:24:35;;;;;;;48.17;9.85;;;9.10;99.90;;;;;;5012553;28;20061;-81
2022/03/27 08:27:02;;;;;;;39.65;9.32;;;9.00;99.90;;;;;;5020913;28;20119;-81
2022/03/27 08:29:39;;;;;;;35.95;8.18;;;8.70;99.90;;;;;;5029154;28;20054;-84
2022/03/27 08:32:07;;;;;;;40.03;9.32;;;8.50;99.90;;;;;;5029664;28;20095;-81
2022/03/27 08:34:36;;;;;;;35.20;7.85;;;8.30;99.90;;;;;;5029088;28;20053;-84
2022/03/27 08:37:04;;;;;;;46.60;9.05;;;8.20;99.90;;;;;;5021154;28;20085;-83
2022/03/27 08:39:30;;;;;;;42.95;8.48;;;8.20;99.90;;;;;;4993196;28;20145;-84
2022/03/27 08:41:56;;;;;;;36.40;8.00;;;8.20;99.90;;;;;;5009434;28;20060;-83
2022/03/27 08:44:24;;;;;;;36.42;8.07;;;8.30;99.90;;;;;;4993395;28;20056;-83
2022/03/27 08:46:52;;;;;;;37.05;8.90;;;8.30;99.90;;;;;;5011589;28;20041;-83
2022/03/27 08:49:17;;;;;;;43.08;8.90;;;8.30;99.90;;;;;;5011151;28;20125;-83
2022/03/27 08:51:47;;;;;;;38.35;8.80;;;8.30;99.90;;;;;;4992754;28;20136;-81
2022/03/27 08:54:42;;;;;;;51.00;9.55;;;8.30;99.90;;;;;;4993245;28;20049;-84
2022/03/27 08:57:23;;;;;;;40.90;8.60;;;8.30;99.90;;;;;;5011176;28;20045;-81
2022/03/27 08:59:52;;;;;;;31.35;7.70;;;8.30;99.90;;;;;;5027258;28;20402;-80
2022/03/27 09:02:19;;;;;;;38.05;9.10;;;8.40;99.90;;;;;;5014032;28;20078;-81
2022/03/27 09:04:46;;;;;;;35.50;8.38;;;8.40;99.90;;;;;;4992928;28;20062;-81
2022/03/27 09:07:11;;;;;;;36.08;7.38;;;8.50;99.90;;;;;;5009389;28;20151;-81
2022/03/27 09:09:37;;;;;;;46.92;9.02;;;8.50;99.90;;;;;;4993435;28;20128;-83
2022/03/27 09:12:04;;;;;;;37.78;8.52;;;8.60;99.90;;;;;;4992775;28;20507;-81
2022/03/27 09:14:34;;;;;;;38.72;8.50;;;8.60;99.90;;;;;;5009230;28;20137;-82
2022/03/27 09:17:07;;;;;;;35.05;7.72;;;8.70;99.90;;;;;;4993054;28;20057;-83
2022/03/27 09:19:43;;;;;;;38.00;7.95;;;8.80;99.90;;;;;;4993649;28;20050;-83
2022/03/27 09:22:13;;;;;;;;;;;8.80;99.90;;;;;;4993201;28;20594;-82
2022/03/27 09:24:40;;;;;;;36.88;8.05;;;8.90;99.50;;;;;;4998115;28;19925;-81
2022/03/27 09:27:06;;;;;;;38.08;7.40;;;9.00;99.90;;;;;;5027733;28;20129;-85
2022/03/27 09:30:10;;;;;;;41.45;8.45;;;9.10;99.90;;;;;;4990099;28;20157;-82
2022/03/27 09:32:45;;;;;;;32.97;7.38;;;9.40;99.10;;;;;;4999138;28;20135;-83
2022/03/27 09:35:17;;;;;;;43.67;9.57;;;9.50;99.00;;;;;;5028591;28;20682;-84
2022/03/27 09:37:47;;;;;;;38.22;8.52;;;9.70;98.60;;;;;;5009458;28;20049;-83
2022/03/27 09:40:15;;;;;;;32.45;7.88;;;9.90;97.90;;;;;;5028394;28;20045;-83
2022/03/27 09:42:41;;;;;;;34.92;8.23;;;10.10;97.50;;;;;;5027580;28;20041;-83
2022/03/27 09:45:23;;;;;;;29.67;7.18;;;10.90;96.90;;;;;;4995837;28;20052;-84
2022/03/27 09:47:50;;;;;;;35.88;8.25;;;12.40;94.90;;;;;;5009909;28;20057;-83
2022/03/27 09:50:37;;;;;;;34.15;8.25;;;13.80;90.80;;;;;;5026852;28;20497;-85
2022/03/27 09:53:25;;;;;;;29.95;7.13;;;14.90;84.90;;;;;;5026950;28;20042;-83
2022/03/27 09:55:58;;;;;;;34.15;7.90;;;15.80;79.80;;;;;;5011664;28;20041;-85
2022/03/27 09:58:42;;;;;;;32.00;8.85;;;16.40;72.80;;;;;;5025300;28;20111;-84
2022/03/27 10:01:08;;;;;;;35.08;7.68;;;16.90;67.90;;;;;;5010684;28;20072;-83
2022/03/27 10:03:35;;;;;;;32.35;8.32;;;17.60;70.80;;;;;;5040836;28;20044;-84
2022/03/27 10:06:24;;;;;;;27.38;6.55;;;18.30;67.50;;;;;;5022938;28;20049;-84
2022/03/27 10:08:50;;;;;;;29.58;7.20;;;18.90;63.80;;;;;;5043349;28;20057;-83
2022/03/27 10:11:18;;;;;;;24.88;6.95;;;19.50;62.40;;;;;;5001429;28;20060;-84
2022/03/27 10:13:46;;;;;;;36.03;8.88;;;19.80;57.90;;;;;;5031624;28;20049;-83
2022/03/27 10:16:11;;;;;;;28.13;6.97;;;19.90;54.90;;;;;;5024356;28;20048;-84
2022/03/27 10:18:37;;;;;;;29.73;6.68;;;19.70;52.70;;;;;;5012907;28;20040;-84
2022/03/27 10:21:03;;;;;;;22.80;6.57;;;19.70;53.80;;;;;;5034191;28;20132;-85
2022/03/27 10:23:31;;;;;;;23.48;6.15;;;19.90;52.50;;;;;;5030045;28;20037;-84
2022/03/27 10:26:03;;;;;;;24.38;6.03;;;20.30;50.80;;;;;;5017913;28;20049;-84
2022/03/27 10:28:29;;;;;;;83.78;9.18;;;20.60;48.80;;;;;;5031821;28;20383;-84
2022/03/27 10:30:55;;;;;;;29.08;7.35;;;21.00;48.20;;;;;;5022385;28;20052;-83
2022/03/27 10:33:25;;;;;;;23.13;5.90;;;21.40;47.00;;;;;;5042213;28;20040;-83
2022/03/27 10:35:58;;;;;;;24.85;6.28;;;21.70;44.70;;;;;;5029927;28;20124;-84
2022/03/27 10:38:57;;;;;;;18.65;4.90;;;21.90;43.60;;;;;;5035133;28;20080;-83
2022/03/27 10:41:57;;;;;;;21.60;4.85;;;22.00;39.90;;;;;;5011195;28;20051;-84
2022/03/27 10:44:28;;;;;;;19.00;5.80;;;21.90;41.20;;;;;;5009947;28;20056;-83
2022/03/27 10:47:10;;;;;;;23.80;5.38;;;22.40;42.90;;;;;;5037653;28;20060;-84
2022/03/27 10:49:36;;;;;;;23.40;6.18;;;22.70;39.20;;;;;;5021807;28;20047;-84
2022/03/27 10:52:06;;;;;;;23.13;5.85;;;22.40;40.00;;;;;;5009467;28;20155;-84
2022/03/27 10:54:52;;;;;;;19.83;5.55;;;22.50;39.40;;;;;;5027175;28;20113;-84
2022/03/27 10:57:35;;;;;;;23.75;5.53;;;22.50;39.60;;;;;;5027029;28;20397;-84
2022/03/27 11:00:03;;;;;;;26.30;5.47;;;22.80;38.70;;;;;;5028191;28;20057;-83
2022/03/27 11:02:45;;;;;;;23.95;5.20;;;23.10;39.20;;;;;;5036517;28;20170;-84
2022/03/27 11:05:34;;;;;;;22.85;5.50;;;23.60;35.90;;;;;;5034067;28;20067;-84
2022/03/27 11:08:18;;;;;;;21.60;5.15;;;23.90;35.40;;;;;;5026165;28;20057;-84
2022/03/27 11:10:50;;;;;;;24.63;6.28;;;24.00;34.90;;;;;;5019733;28;20059;-85
2022/03/27 11:13:25;;;;;;;17.58;4.70;;;24.00;36.40;;;;;;5029218;28;20704;-84
2022/03/27 11:16:11;;;;;;;22.80;5.20;;;24.00;35.90;;;;;;5040536;28;20044;-84
2022/03/27 11:18:48;;;;;;;;;;;24.30;34.00;;;;;;5047059;28;20127;-84
2022/03/27 11:21:34;;;;;;;20.23;5.13;;;24.60;35.00;;;;;;5037880;28;19928;-82
2022/03/27 11:24:03;;;;;;;15.90;4.57;;;24.90;34.60;;;;;;5025894;28;20040;-85
2022/03/27 11:26:31;;;;;;;20.45;5.55;;;25.10;34.10;;;;;;5039028;28;20132;-85
2022/03/27 11:29:10;;;;;;;17.20;5.00;;;25.10;32.50;;;;;;5031328;28;20132;-82
2022/03/27 11:31:37;;;;;;;22.52;6.15;;;25.30;32.40;;;;;;5042246;28;20055;-84
2022/03/27 11:34:11;;;;;;;22.75;5.45;;;25.50;32.80;;;;;;5036106;28;20052;-84
2022/03/27 11:36:45;;;;;;;16.13;4.93;;;26.00;32.30;;;;;;5034657;28;20044;-85
2022/03/27 11:39:29;;;;;;;19.08;4.78;;;26.10;31.10;;;;;;5006827;28;20052;-82
2022/03/27 11:42:15;;;;;;;19.23;5.30;;;26.30;30.10;;;;;;5012794;28;20072;-82
2022/03/27 11:47:40;;;;;;;15.20;4.00;;;26.40;30.10;;;;;;5000027;28;20263;-81
2022/03/27 11:50:07;;;;;;;18.98;4.20;;;26.60;29.30;;;;;;5013316;28;20041;-81
2022/03/27 11:52:34;;;;;;;20.58;4.93;;;26.80;29.40;;;;;;4997621;28;20041;-82
2022/03/27 11:55:05;;;;;;;16.73;4.50;;;26.70;28.80;;;;;;4996792;28;20054;-82
2022/03/27 11:57:45;;;;;;;17.23;4.43;;;26.60;28.50;;;;;;5019987;28;20067;-82
2022/03/27 12:00:13;;;;;;;16.17;4.43;;;26.90;27.60;;;;;;5017239;28;20057;-82
2022/03/27 12:02:44;;;;;;;14.15;3.60;;;27.20;28.70;;;;;;5033448;28;20041;-82
2022/03/27 12:05:11;;;;;;;17.45;4.32;;;27.20;27.70;;;;;;5032944;28;20501;-81
2022/03/27 12:07:55;;;;;;;16.83;4.05;;;27.10;27.60;;;;;;5016737;28;20135;-82
2022/03/27 12:10:21;;;;;;;13.57;3.67;;;27.20;26.40;;;;;;5033609;28;20490;-82
2022/03/27 12:13:04;;;;;;;12.10;3.60;;;27.10;27.10;;;;;;5016855;28;20041;-83
2022/03/27 12:15:37;;;;;;;15.18;3.47;;;27.00;25.90;;;;;;5033173;28;20106;-82
2022/03/27 12:18:04;;;;;;;12.60;3.40;;;26.90;26.10;;;;;;5032607;28;20056;-82
2022/03/27 12:20:39;;;;;;;13.30;3.28;;;27.20;26.10;;;;;;5016678;28;20437;-81
2022/03/27 12:23:35;;;;;;;15.30;3.42;;;27.30;26.10;;;;;;5016009;28;20049;-82
2022/03/27 12:26:02;;;;;;;15.43;3.65;;;27.20;24.70;;;;;;5016224;28;20140;-82
2022/03/27 12:31:22;;;;;;;13.18;3.67;;;27.70;25.30;;;;;;5032677;28;20055;-81
2022/03/27 12:33:49;;;;;;;11.88;3.30;;;27.80;24.00;;;;;;5016338;28;20052;-82
2022/03/27 12:36:16;;;;;;;10.75;2.92;;;27.60;24.20;;;;;;5032319;28;20057;-82
2022/03/27 12:38:42;;;;;;;11.77;3.50;;;27.50;24.50;;;;;;5033010;28;20060;-82
2022/03/27 12:41:10;;;;;;;13.75;3.40;;;27.40;24.00;;;;;;5015711;28;20079;-82
2022/03/27 12:43:57;;;;;;;10.45;2.83;;;27.50;23.30;;;;;;5015847;28;20107;-82
2022/03/27 12:46:23;;;;;;;10.63;2.70;;;27.60;23.60;;;;;;5032600;28;20057;-83
2022/03/27 12:49:03;;;;;;;8.82;2.95;;;27.40;23.20;;;;;;5032412;28;20071;-81
2022/03/27 12:51:29;;;;;;;9.77;2.75;;;27.40;22.60;;;;;;5032578;28;20049;-82
2022/03/27 12:54:08;;;;;;;12.05;2.90;;;27.50;23.10;;;;;;5015401;28;20064;-82
2022/03/27 12:56:53;;;;;;;9.38;3.00;;;27.70;22.70;;;;;;5032784;28;20049;-81
2022/03/27 12:59:21;;;;;;;12.73;3.20;;;27.60;23.20;;;;;;5015874;28;20053;-82
2022/03/27 13:01:46;;;;;;;14.80;3.55;;;27.50;23.20;;;;;;5031982;28;20489;-81